createdAt,value
2022-08-31T00:00:30.505Z,40.51
2022-08-31T00:03:17.739Z,40.51
2022-08-31T00:05:45.998Z,40.69
2022-08-31T00:08:14.072Z,40.71
2022-08-31T00:10:46.267Z,40.91
2022-08-31T00:13:17.975Z,41.10
2022-08-31T00:15:46.486Z,41.10
2022-08-31T00:18:16.399Z,41.21
2022-08-31T00:20:44.881Z,41.37
2022-08-31T00:23:14.756Z,41.60
2022-08-31T00:25:45.451Z,41.78
2022-08-31T00:28:14.703Z,42.23
2022-08-31T00:30:43.356Z,42.48
2022-08-31T00:33:11.643Z,42.74
2022-08-31T00:35:42.693Z,42.96
2022-08-31T00:38:12.018Z,43.22
2022-08-31T00:40:44.433Z,43.56
2022-08-31T00:43:13.994Z,43.48
2022-08-31T00:45:42.111Z,43.63
2022-08-31T00:48:10.198Z,43.84
2022-08-31T00:50:38.284Z,44.25
2022-08-31T00:53:07.720Z,44.46
2022-08-31T00:55:37.885Z,44.55
2022-08-31T00:58:10.128Z,44.90
2022-08-31T01:00:38.994Z,45.24
2022-08-31T01:03:09.083Z,45.47
2022-08-31T01:05:38.439Z,45.55
2022-08-31T01:08:08.581Z,45.65
2022-08-31T01:10:39.678Z,45.96
2022-08-31T01:13:09.003Z,46.01
2022-08-31T01:15:38.900Z,46.26
2022-08-31T01:18:07.941Z,46.28
2022-08-31T01:20:48.973Z,46.41
2022-08-31T01:23:24.046Z,46.57
2022-08-31T01:25:53.542Z,46.93
2022-08-31T01:28:21.713Z,46.99
2022-08-31T01:31:04.274Z,46.80
2022-08-31T01:33:35.458Z,47.18
2022-08-31T01:36:04.821Z,47.36
2022-08-31T01:38:35.105Z,47.54
2022-08-31T01:41:04.221Z,47.71
2022-08-31T01:43:34.615Z,47.82
2022-08-31T01:46:03.416Z,47.93
2022-08-31T01:48:33.073Z,48.08
2022-08-31T01:51:03.491Z,48.18
2022-08-31T01:53:32.198Z,48.53
2022-08-31T01:56:01.758Z,48.66
2022-08-31T01:58:30.033Z,48.83
2022-08-31T02:01:39.060Z,49.08
2022-08-31T02:04:10.125Z,49.11
2022-08-31T02:06:38.824Z,49.25
2022-08-31T02:09:07.925Z,49.31
2022-08-31T02:11:38.931Z,49.43
2022-08-31T02:14:08.075Z,49.57
2022-08-31T02:16:37.476Z,49.63
2022-08-31T02:19:06.134Z,49.78
2022-08-31T02:21:36.859Z,49.89
2022-08-31T02:24:06.373Z,49.84
2022-08-31T02:26:34.503Z,49.81
2022-08-31T02:29:07.251Z,49.79
2022-08-31T02:31:35.564Z,49.98
2022-08-31T02:34:04.198Z,50.11
2022-08-31T02:36:34.790Z,50.27
2022-08-31T02:39:05.933Z,50.24
2022-08-31T02:41:34.929Z,50.28
2022-08-31T02:44:03.592Z,50.33
2022-08-31T02:46:36.324Z,50.40
2022-08-31T02:49:21.722Z,50.47
2022-08-31T02:51:50.674Z,50.67
2022-08-31T02:54:19.008Z,50.86
2022-08-31T02:56:48.022Z,50.90
2022-08-31T02:59:20.703Z,50.95
2022-08-31T03:01:52.881Z,51.02
2022-08-31T03:04:21.277Z,51.06
2022-08-31T03:06:49.366Z,51.01
2022-08-31T03:09:17.606Z,51.32
2022-08-31T03:11:46.905Z,51.37
2022-08-31T03:14:15.396Z,51.44
2022-08-31T03:16:43.681Z,51.50
2022-08-31T03:19:13.263Z,51.66
2022-08-31T03:21:41.322Z,51.86
2022-08-31T03:24:10.472Z,51.91
2022-08-31T03:26:38.973Z,51.81
2022-08-31T03:29:07.298Z,51.85
2022-08-31T03:31:38.076Z,52.07
2022-08-31T03:34:06.474Z,52.17
2022-08-31T03:36:35.917Z,52.20
2022-08-31T03:39:04.655Z,52.23
2022-08-31T03:41:32.962Z,52.22
2022-08-31T03:44:02.816Z,52.30
2022-08-31T03:46:33.711Z,52.49
2022-08-31T03:49:07.665Z,52.49
2022-08-31T03:51:37.177Z,52.40
2022-08-31T03:54:05.799Z,52.47
2022-08-31T03:56:34.390Z,52.43
2022-08-31T03:59:02.534Z,52.46
2022-08-31T04:01:50.632Z,52.56
2022-08-31T04:04:37.027Z,52.56
2022-08-31T04:07:25.385Z,52.65
2022-08-31T04:10:13.018Z,52.78
2022-08-31T04:12:59.456Z,52.87
2022-08-31T04:15:37.916Z,52.89
2022-08-31T04:18:24.549Z,52.88
2022-08-31T04:20:52.638Z,52.85
2022-08-31T04:23:22.037Z,52.75
2022-08-31T04:25:52.417Z,52.89
2022-08-31T04:28:20.505Z,52.96
2022-08-31T04:30:49.421Z,53.01
2022-08-31T04:33:18.529Z,53.10
2022-08-31T04:35:46.826Z,53.15
2022-08-31T04:38:14.918Z,53.15
2022-08-31T04:40:45.342Z,53.20
2022-08-31T04:43:13.545Z,53.23
2022-08-31T04:45:45.143Z,53.25
2022-08-31T04:48:15.417Z,53.36
2022-08-31T04:50:44.377Z,53.47
2022-08-31T04:53:12.998Z,53.63
2022-08-31T04:55:42.003Z,53.73
2022-08-31T04:58:13.800Z,53.85
2022-08-31T05:00:43.392Z,54.07
2022-08-31T05:03:52.945Z,54.13
2022-08-31T05:06:22.753Z,54.21
2022-08-31T05:08:54.578Z,54.14
2022-08-31T05:11:25.144Z,54.26
2022-08-31T05:13:55.102Z,54.28
2022-08-31T05:16:23.361Z,54.26
2022-08-31T05:18:52.637Z,54.36
2022-08-31T05:21:28.369Z,54.39
2022-08-31T05:23:57.821Z,54.55
2022-08-31T05:26:27.462Z,54.51
2022-08-31T05:28:57.469Z,54.55
2022-08-31T05:31:29.207Z,54.59
2022-08-31T05:33:59.938Z,54.65
2022-08-31T05:36:37.889Z,54.68
2022-08-31T05:39:11.781Z,54.82
2022-08-31T05:41:40.604Z,54.86
2022-08-31T05:44:11.089Z,54.87
2022-08-31T05:46:41.022Z,55.07
2022-08-31T05:49:11.555Z,55.19
2022-08-31T05:51:40.744Z,55.23
2022-08-31T05:54:10.798Z,55.37
2022-08-31T05:56:42.012Z,55.32
2022-08-31T05:59:14.567Z,55.39
2022-08-31T06:01:43.249Z,55.42
2022-08-31T06:04:14.644Z,55.58
2022-08-31T06:06:44.514Z,55.53
2022-08-31T06:09:18.063Z,55.59
2022-08-31T06:11:46.758Z,55.52
2022-08-31T06:14:18.819Z,55.38
2022-08-31T06:16:48.883Z,55.39
2022-08-31T06:19:20.018Z,55.42
2022-08-31T06:21:51.407Z,55.49
2022-08-31T06:24:24.518Z,55.36
2022-08-31T06:26:58.293Z,55.33
2022-08-31T06:29:34.988Z,55.24
2022-08-31T06:32:07.910Z,55.15
2022-08-31T06:34:51.245Z,54.87
2022-08-31T06:38:32.040Z,54.66
2022-08-31T06:42:07.575Z,54.28
2022-08-31T06:46:01.914Z,54.06
2022-08-31T06:48:51.895Z,53.67
2022-08-31T06:52:55.811Z,53.55
2022-08-31T06:55:29.492Z,53.21
2022-08-31T06:58:28.889Z,52.88
2022-08-31T07:01:36.399Z,52.67
2022-08-31T07:04:41.292Z,52.41
2022-08-31T07:07:11.471Z,52.03
2022-08-31T07:09:41.385Z,52.03
2022-08-31T07:12:10.564Z,51.56
2022-08-31T07:14:38.907Z,50.96
2022-08-31T07:17:08.324Z,50.72
2022-08-31T07:19:36.421Z,50.56
2022-08-31T07:22:10.479Z,50.05
2022-08-31T07:24:52.201Z,49.50
2022-08-31T07:27:20.498Z,47.48
2022-08-31T07:29:53.266Z,45.96
2022-08-31T07:32:22.975Z,44.31
2022-08-31T07:34:58.548Z,42.75
2022-08-31T07:37:50.802Z,42.58
2022-08-31T07:40:41.222Z,41.07
2022-08-31T07:43:11.803Z,40.59
2022-08-31T07:45:41.377Z,40.61
2022-08-31T07:48:10.427Z,40.10
2022-08-31T07:51:14.550Z,39.34
2022-08-31T07:53:52.803Z,38.88
2022-08-31T07:56:39.865Z,38.83
2022-08-31T07:59:15.016Z,38.71
2022-08-31T08:01:45.180Z,38.69
2022-08-31T08:04:15.537Z,38.61
2022-08-31T08:07:18.579Z,38.44
2022-08-31T08:10:14.144Z,38.46
2022-08-31T08:13:05.096Z,38.13
2022-08-31T08:16:06.297Z,39.93
2022-08-31T08:18:53.103Z,39.26
2022-08-31T08:21:25.709Z,38.33
2022-08-31T08:23:54.186Z,37.87
2022-08-31T08:26:53.465Z,38.11
2022-08-31T08:29:40.625Z,38.28
2022-08-31T08:32:17.256Z,38.68
2022-08-31T08:34:45.934Z,38.22
2022-08-31T08:37:15.052Z,37.16
2022-08-31T08:39:43.931Z,38.11
2022-08-31T08:42:17.623Z,37.81
2022-08-31T08:44:46.026Z,37.82
2022-08-31T08:47:20.822Z,37.29
2022-08-31T08:49:58.731Z,36.20
2022-08-31T08:52:31.729Z,35.89
2022-08-31T08:55:03.793Z,36.72
2022-08-31T08:57:36.175Z,35.77
2022-08-31T09:00:11.222Z,34.17
2022-08-31T09:02:46.822Z,34.21
2022-08-31T09:05:46.165Z,34.66
2022-08-31T09:09:11.724Z,33.34
2022-08-31T09:11:55.748Z,33.32
2022-08-31T09:14:48.174Z,33.44
2022-08-31T09:17:33.638Z,32.15
2022-08-31T09:20:04.202Z,33.19
2022-08-31T09:22:50.495Z,32.88
2022-08-31T09:25:26.629Z,33.79
2022-08-31T09:28:07.494Z,33.53
2022-08-31T09:30:43.439Z,32.22
2022-08-31T09:33:19.741Z,32.15
2022-08-31T09:35:50.822Z,32.26
2022-08-31T09:38:29.114Z,31.16
2022-08-31T09:40:58.048Z,29.48
2022-08-31T09:43:35.077Z,29.40
2022-08-31T09:46:08.496Z,29.46
2022-08-31T09:48:43.479Z,30.19
2022-08-31T09:51:20.381Z,29.04
2022-08-31T09:54:06.259Z,28.71
2022-08-31T09:56:55.028Z,28.04
2022-08-31T09:59:38.559Z,27.93
2022-08-31T10:02:12.142Z,27.72
2022-08-31T10:04:52.352Z,28.41
2022-08-31T10:07:37.927Z,28.80
2022-08-31T10:10:28.128Z,27.91
2022-08-31T10:13:06.835Z,27.94
2022-08-31T10:15:41.261Z,27.86
2022-08-31T10:18:16.423Z,26.78
2022-08-31T10:20:50.773Z,26.23
2022-08-31T10:23:22.316Z,26.71
2022-08-31T10:25:58.402Z,26.22
2022-08-31T10:28:33.886Z,26.47
2022-08-31T10:31:04.788Z,27.10
2022-08-31T10:33:54.358Z,26.65
2022-08-31T10:36:25.463Z,25.75
2022-08-31T10:38:55.151Z,26.43
2022-08-31T10:41:29.030Z,25.50
2022-08-31T10:44:05.516Z,26.63
2022-08-31T10:46:35.632Z,25.97
2022-08-31T10:49:06.250Z,26.49
2022-08-31T10:51:40.814Z,25.15
2022-08-31T10:54:28.990Z,25.32
2022-08-31T10:57:08.190Z,25.72
2022-08-31T10:59:40.870Z,25.79
2022-08-31T11:02:36.865Z,26.17
2022-08-31T11:05:22.930Z,25.00
2022-08-31T11:08:00.747Z,25.59
2022-08-31T11:10:42.489Z,24.05
2022-08-31T11:13:20.921Z,22.25
2022-08-31T11:16:07.490Z,23.97
2022-08-31T11:19:15.471Z,23.68
2022-08-31T11:22:21.761Z,23.72
2022-08-31T11:25:20.781Z,24.36
2022-08-31T11:27:54.138Z,23.59
2022-08-31T11:30:26.702Z,23.09
2022-08-31T11:32:58.954Z,21.92
2022-08-31T11:36:07.636Z,22.27
2022-08-31T11:39:15.175Z,23.22
2022-08-31T11:41:46.919Z,22.41
2022-08-31T11:45:01.027Z,22.24
2022-08-31T11:47:44.748Z,21.03
2022-08-31T11:50:29.249Z,22.01
2022-08-31T11:53:00.228Z,21.37
2022-08-31T11:55:31.435Z,20.41
2022-08-31T11:58:21.057Z,20.30
2022-08-31T12:00:58.599Z,18.86
2022-08-31T12:03:52.510Z,18.31
2022-08-31T12:07:07.112Z,18.82
2022-08-31T12:10:34.045Z,18.31
2022-08-31T12:13:41.174Z,18.63
2022-08-31T12:16:20.983Z,17.85
2022-08-31T12:19:08.743Z,18.96
2022-08-31T12:22:04.569Z,17.95
2022-08-31T12:25:28.116Z,18.31
2022-08-31T12:28:07.763Z,18.02
2022-08-31T12:30:37.393Z,18.14
2022-08-31T12:33:11.051Z,17.61
2022-08-31T12:35:39.756Z,17.66
2022-08-31T12:38:10.557Z,17.01
2022-08-31T12:40:44.810Z,17.32
2022-08-31T12:43:18.171Z,16.35
2022-08-31T12:46:12.018Z,17.09
2022-08-31T12:48:54.163Z,17.00
2022-08-31T12:51:36.915Z,16.63
2022-08-31T12:54:35.309Z,16.98
2022-08-31T12:57:13.334Z,16.88
2022-08-31T13:00:00.514Z,16.61
2022-08-31T13:02:34.932Z,17.38
2022-08-31T13:05:04.310Z,17.17
2022-08-31T13:07:35.671Z,18.10
2022-08-31T13:10:09.567Z,18.48
2022-08-31T13:12:39.278Z,18.85
2022-08-31T13:15:21.854Z,19.57
2022-08-31T13:17:54.150Z,19.60
2022-08-31T13:20:26.676Z,19.90
2022-08-31T13:23:02.581Z,19.44
2022-08-31T13:25:38.420Z,18.46
2022-08-31T13:28:24.624Z,18.35
2022-08-31T13:31:03.571Z,19.83
2022-08-31T13:33:35.586Z,20.17
2022-08-31T13:36:09.918Z,18.66
2022-08-31T13:38:53.321Z,19.47
2022-08-31T13:41:27.577Z,19.28
2022-08-31T13:44:02.765Z,19.43
2022-08-31T13:46:43.040Z,18.80
2022-08-31T13:49:35.490Z,19.31
2022-08-31T13:52:05.597Z,18.06
2022-08-31T13:54:36.385Z,17.93
2022-08-31T13:57:19.702Z,19.28
2022-08-31T13:59:48.976Z,19.99
2022-08-31T14:02:37.348Z,18.79
2022-08-31T14:05:12.904Z,19.29
2022-08-31T14:07:55.877Z,19.75
2022-08-31T14:10:26.458Z,20.08
2022-08-31T14:12:58.610Z,20.60
2022-08-31T14:15:36.398Z,19.96
2022-08-31T14:18:26.169Z,20.79
2022-08-31T14:21:23.525Z,19.87
2022-08-31T14:23:55.089Z,20.95
2022-08-31T14:26:26.552Z,19.14
2022-08-31T14:28:58.542Z,20.47
2022-08-31T14:31:29.947Z,20.21
2022-08-31T14:34:20.353Z,20.13
2022-08-31T14:36:54.041Z,19.79
2022-08-31T14:39:25.000Z,19.38
2022-08-31T14:41:55.404Z,19.16
2022-08-31T14:44:27.200Z,19.90
2022-08-31T14:46:55.646Z,20.12
2022-08-31T14:49:24.915Z,19.55
2022-08-31T14:51:55.167Z,20.58
2022-08-31T14:54:24.959Z,20.47
2022-08-31T14:56:56.247Z,19.91
2022-08-31T14:59:24.655Z,20.50
2022-08-31T15:01:53.692Z,20.10
2022-08-31T15:04:22.328Z,20.46
2022-08-31T15:06:55.105Z,21.64
2022-08-31T15:09:24.825Z,22.17
2022-08-31T15:11:53.161Z,22.30
2022-08-31T15:14:22.402Z,22.23
2022-08-31T15:16:51.435Z,23.14
2022-08-31T15:19:19.715Z,23.35
2022-08-31T15:22:02.870Z,23.98
2022-08-31T15:24:33.007Z,23.66
2022-08-31T15:27:01.624Z,24.04
2022-08-31T15:29:30.599Z,24.25
2022-08-31T15:31:59.865Z,24.51
2022-08-31T15:34:31.238Z,24.80
2022-08-31T15:37:02.505Z,24.53
2022-08-31T15:39:36.220Z,24.75
2022-08-31T15:42:09.414Z,24.98
2022-08-31T15:44:38.507Z,24.65
2022-08-31T15:47:26.075Z,24.93
2022-08-31T15:49:56.042Z,26.22
2022-08-31T15:52:27.812Z,25.25
2022-08-31T15:54:58.349Z,25.33
2022-08-31T15:57:26.707Z,25.61
2022-08-31T15:59:55.060Z,26.36
2022-08-31T16:02:23.466Z,26.73
2022-08-31T16:04:52.033Z,27.74
2022-08-31T16:07:23.335Z,27.95
2022-08-31T16:09:51.663Z,27.97
2022-08-31T16:12:23.394Z,28.28
2022-08-31T16:14:52.399Z,29.11
2022-08-31T16:17:20.711Z,28.73
2022-08-31T16:19:49.465Z,28.67
2022-08-31T16:22:18.843Z,28.60
2022-08-31T16:24:49.030Z,29.29
2022-08-31T16:27:19.756Z,29.54
2022-08-31T16:29:50.976Z,29.91
2022-08-31T16:32:19.828Z,30.37
2022-08-31T16:34:49.169Z,30.00
2022-08-31T16:37:17.399Z,30.65
2022-08-31T16:39:47.330Z,30.61
2022-08-31T16:42:16.249Z,30.98
2022-08-31T16:44:46.792Z,31.30
2022-08-31T16:47:19.104Z,31.58
2022-08-31T16:49:47.044Z,31.54
2022-08-31T16:52:21.344Z,31.96
2022-08-31T16:54:51.095Z,32.32
2022-08-31T16:57:23.643Z,32.68
2022-08-31T16:59:52.415Z,32.68
2022-08-31T17:02:23.228Z,32.50
2022-08-31T17:04:53.457Z,32.60
2022-08-31T17:07:23.726Z,32.51
2022-08-31T17:09:55.976Z,32.58
2022-08-31T17:12:27.367Z,33.22
2022-08-31T17:14:56.222Z,32.83
2022-08-31T17:17:27.722Z,33.15
2022-08-31T17:19:57.677Z,33.38
2022-08-31T17:22:32.466Z,33.68
2022-08-31T17:25:03.108Z,34.14
2022-08-31T17:27:33.542Z,34.34
2022-08-31T17:30:06.320Z,34.53
2022-08-31T17:32:44.583Z,35.05
2022-08-31T17:35:18.448Z,35.40
2022-08-31T17:37:49.211Z,35.73
2022-08-31T17:40:17.821Z,35.56
2022-08-31T17:42:46.313Z,35.88
2022-08-31T17:45:15.660Z,35.95
2022-08-31T17:47:45.463Z,36.28
2022-08-31T17:50:17.232Z,36.30
2022-08-31T17:52:47.454Z,36.76
2022-08-31T17:55:16.054Z,36.55
2022-08-31T17:57:45.102Z,36.72
2022-08-31T18:00:16.012Z,36.99
2022-08-31T18:02:46.146Z,37.04
2022-08-31T18:05:16.234Z,37.23
2022-08-31T18:07:44.611Z,37.59
2022-08-31T18:10:14.880Z,38.06
2022-08-31T18:12:43.460Z,38.17
2022-08-31T18:15:13.945Z,38.46
2022-08-31T18:17:43.125Z,38.84
2022-08-31T18:20:13.344Z,39.04
2022-08-31T18:22:42.038Z,39.17
2022-08-31T18:25:11.550Z,39.27
2022-08-31T18:27:39.956Z,39.50
2022-08-31T18:30:10.028Z,39.59
2022-08-31T18:32:38.361Z,39.95
2022-08-31T18:35:17.601Z,40.20
2022-08-31T18:37:46.088Z,40.66
2022-08-31T18:40:31.880Z,40.78
2022-08-31T18:43:17.898Z,40.88
2022-08-31T18:45:49.334Z,41.01
2022-08-31T18:48:26.653Z,41.12
2022-08-31T18:50:59.144Z,41.34
2022-08-31T18:53:30.290Z,41.65
2022-08-31T18:56:00.734Z,41.83
2022-08-31T18:58:30.089Z,42.13
2022-08-31T19:00:59.485Z,42.13
2022-08-31T19:03:28.745Z,42.23
2022-08-31T19:05:58.480Z,42.53
2022-08-31T19:08:27.163Z,42.67
2022-08-31T19:10:58.160Z,43.00
2022-08-31T19:13:31.356Z,43.18
2022-08-31T19:16:03.559Z,43.42
2022-08-31T19:18:34.190Z,43.57
2022-08-31T19:21:14.388Z,43.74
2022-08-31T19:23:43.554Z,44.06
2022-08-31T19:26:12.111Z,44.29
2022-08-31T19:28:41.060Z,44.62
2022-08-31T19:31:11.659Z,44.74
2022-08-31T19:33:40.168Z,44.93
2022-08-31T19:36:08.840Z,44.99
2022-08-31T19:38:39.891Z,45.20
2022-08-31T19:41:15.732Z,45.15
2022-08-31T19:43:52.228Z,45.53
2022-08-31T19:46:26.465Z,45.66
2022-08-31T19:48:59.212Z,46.00
2022-08-31T19:51:29.821Z,46.13
2022-08-31T19:54:00.961Z,46.38
2022-08-31T19:56:31.306Z,46.46
2022-08-31T19:59:00.593Z,46.61
2022-08-31T20:01:34.074Z,46.76
2022-08-31T20:04:04.314Z,46.71
2022-08-31T20:06:32.867Z,46.84
2022-08-31T20:09:02.735Z,46.86
2022-08-31T20:11:31.635Z,46.83
2022-08-31T20:14:01.163Z,46.90
2022-08-31T20:16:35.683Z,47.27
2022-08-31T20:19:05.977Z,47.44
2022-08-31T20:21:36.347Z,47.57
2022-08-31T20:24:09.131Z,47.70
2022-08-31T20:26:47.236Z,47.75
2022-08-31T20:29:19.213Z,48.15
2022-08-31T20:31:49.721Z,48.16
2022-08-31T20:34:21.819Z,48.31
2022-08-31T20:36:52.373Z,48.22
2022-08-31T20:39:24.989Z,48.26
2022-08-31T20:41:56.259Z,48.69
2022-08-31T20:44:52.167Z,48.56
2022-08-31T20:47:37.743Z,48.92
2022-08-31T20:50:11.377Z,49.28
2022-08-31T20:52:40.106Z,49.53
2022-08-31T20:55:12.429Z,49.74
2022-08-31T20:57:40.970Z,49.82
2022-08-31T21:00:11.240Z,49.84
2022-08-31T21:02:40.730Z,49.84
2022-08-31T21:05:37.433Z,49.73
2022-08-31T21:08:00.006Z,49.71
2022-08-31T21:10:37.079Z,49.76
2022-08-31T21:13:08.720Z,49.95
2022-08-31T21:15:41.921Z,50.03
2022-08-31T21:18:10.137Z,50.28
2022-08-31T21:20:38.233Z,50.35
2022-08-31T21:23:12.624Z,50.35
2022-08-31T21:25:44.919Z,50.52
2022-08-31T21:28:14.658Z,50.66
2022-08-31T21:30:42.806Z,50.65
2022-08-31T21:33:10.874Z,50.63
2022-08-31T21:35:38.928Z,50.60
2022-08-31T21:38:07.439Z,50.44
2022-08-31T21:40:37.091Z,50.60
2022-08-31T21:43:06.541Z,50.53
2022-08-31T21:45:34.568Z,50.56
2022-08-31T21:48:02.677Z,50.49
2022-08-31T21:50:30.755Z,50.37
2022-08-31T21:53:00.514Z,50.36
2022-08-31T21:55:28.904Z,50.35
2022-08-31T21:57:57.032Z,50.44
2022-08-31T22:00:29.550Z,50.34
2022-08-31T22:02:58.493Z,50.18
2022-08-31T22:05:30.171Z,50.08
2022-08-31T22:07:58.272Z,49.99
2022-08-31T22:10:26.905Z,50.03
2022-08-31T22:12:54.951Z,49.94
2022-08-31T22:15:24.043Z,49.86
2022-08-31T22:18:15.453Z,49.85
2022-08-31T22:20:43.098Z,49.94
2022-08-31T22:23:12.335Z,49.92
2022-08-31T22:25:40.510Z,49.98
2022-08-31T22:28:10.165Z,49.73
2022-08-31T22:30:38.242Z,49.79
2022-08-31T22:33:07.663Z,49.66
2022-08-31T22:35:40.066Z,49.47
2022-08-31T22:38:09.131Z,49.47
2022-08-31T22:40:39.421Z,49.37
2022-08-31T22:43:07.745Z,49.28
2022-08-31T22:45:35.863Z,49.34
2022-08-31T22:48:04.264Z,49.22
2022-08-31T22:50:35.475Z,49.14
2022-08-31T22:53:03.882Z,49.11
2022-08-31T22:55:31.882Z,49.18
2022-08-31T22:57:59.917Z,49.05
2022-08-31T23:00:27.999Z,49.00
2022-08-31T23:02:56.002Z,49.00
2022-08-31T23:05:24.511Z,49.00
2022-08-31T23:07:54.738Z,48.96
2022-08-31T23:10:24.179Z,48.99
2022-08-31T23:12:52.551Z,49.01
2022-08-31T23:15:24.033Z,48.92
2022-08-31T23:17:53.468Z,48.94
2022-08-31T23:20:24.611Z,49.15
2022-08-31T23:22:55.318Z,49.02
2022-08-31T23:25:25.013Z,49.09
2022-08-31T23:27:53.731Z,49.13
2022-08-31T23:30:25.640Z,49.34
2022-08-31T23:32:53.978Z,49.20
2022-08-31T23:35:24.548Z,49.20
2022-08-31T23:37:54.345Z,49.14
2022-08-31T23:40:22.446Z,49.28
2022-08-31T23:42:50.709Z,49.25
2022-08-31T23:45:19.294Z,49.42
2022-08-31T23:47:51.590Z,49.31
2022-08-31T23:50:19.661Z,49.49
2022-08-31T23:52:48.701Z,49.47
2022-08-31T23:55:18.945Z,49.44
2022-08-31T23:57:48.454Z,49.63
